sensor_id;sensor_type;location;lat;lon;timestamp;temperature;humidity
48551;DHT22;34397;51.176;6.738;2023-02-02T00:00:00;6.80;82.00
48551;DHT22;34397;51.176;6.738;2023-02-02T00:02:32;6.80;82.00
48551;DHT22;34397;51.176;6.738;2023-02-02T00:05:05;6.90;82.10
48551;DHT22;34397;51.176;6.738;2023-02-02T00:07:38;6.90;82.20
48551;DHT22;34397;51.176;6.738;2023-02-02T00:10:10;6.90;82.30
48551;DHT22;34397;51.176;6.738;2023-02-02T00:12:42;6.90;82.50
48551;DHT22;34397;51.176;6.738;2023-02-02T00:15:13;6.80;82.60
48551;DHT22;34397;51.176;6.738;2023-02-02T00:17:45;6.80;82.60
48551;DHT22;34397;51.176;6.738;2023-02-02T00:20:19;6.80;82.70
48551;DHT22;34397;51.176;6.738;2023-02-02T00:22:51;6.80;82.70
48551;DHT22;34397;51.176;6.738;2023-02-02T00:25:23;6.80;83.40
48551;DHT22;34397;51.176;6.738;2023-02-02T00:27:55;6.80;82.70
48551;DHT22;34397;51.176;6.738;2023-02-02T00:30:27;6.80;83.30
48551;DHT22;34397;51.176;6.738;2023-02-02T00:32:59;6.80;82.90
48551;DHT22;34397;51.176;6.738;2023-02-02T00:35:32;6.80;82.80
48551;DHT22;34397;51.176;6.738;2023-02-02T00:38:03;6.80;82.90
48551;DHT22;34397;51.176;6.738;2023-02-02T00:40:35;6.80;83.00
48551;DHT22;34397;51.176;6.738;2023-02-02T00:43:07;6.80;83.60
48551;DHT22;34397;51.176;6.738;2023-02-02T00:45:40;6.80;83.40
48551;DHT22;34397;51.176;6.738;2023-02-02T00:48:11;6.80;84.40
48551;DHT22;34397;51.176;6.738;2023-02-02T00:50:44;6.80;83.90
48551;DHT22;34397;51.176;6.738;2023-02-02T00:53:16;6.70;84.10
48551;DHT22;34397;51.176;6.738;2023-02-02T00:55:48;6.70;84.30
48551;DHT22;34397;51.176;6.738;2023-02-02T00:58:20;6.70;84.50
48551;DHT22;34397;51.176;6.738;2023-02-02T01:00:52;6.70;84.50
48551;DHT22;34397;51.176;6.738;2023-02-02T01:03:24;6.60;84.50
48551;DHT22;34397;51.176;6.738;2023-02-02T01:05:57;6.60;84.60
48551;DHT22;34397;51.176;6.738;2023-02-02T01:08:29;6.70;84.60
48551;DHT22;34397;51.176;6.738;2023-02-02T01:11:00;6.60;84.90
48551;DHT22;34397;51.176;6.738;2023-02-02T01:13:32;6.70;84.80
48551;DHT22;34397;51.176;6.738;2023-02-02T01:16:05;6.70;84.70
48551;DHT22;34397;51.176;6.738;2023-02-02T01:18:37;6.70;84.90
48551;DHT22;34397;51.176;6.738;2023-02-02T01:21:11;6.70;84.90
48551;DHT22;34397;51.176;6.738;2023-02-02T01:23:43;6.70;85.50
48551;DHT22;34397;51.176;6.738;2023-02-02T01:26:16;6.70;86.00
48551;DHT22;34397;51.176;6.738;2023-02-02T01:28:48;6.70;86.40
48551;DHT22;34397;51.176;6.738;2023-02-02T01:31:20;6.70;86.60
48551;DHT22;34397;51.176;6.738;2023-02-02T01:33:52;6.60;86.80
48551;DHT22;34397;51.176;6.738;2023-02-02T01:36:25;6.60;87.40
48551;DHT22;34397;51.176;6.738;2023-02-02T01:38:57;6.50;87.90
48551;DHT22;34397;51.176;6.738;2023-02-02T01:41:28;6.50;88.40
48551;DHT22;34397;51.176;6.738;2023-02-02T01:44:02;6.50;88.70
48551;DHT22;34397;51.176;6.738;2023-02-02T01:46:36;6.50;88.70
48551;DHT22;34397;51.176;6.738;2023-02-02T01:49:11;6.50;88.90
48551;DHT22;34397;51.176;6.738;2023-02-02T01:51:49;6.50;88.80
48551;DHT22;34397;51.176;6.738;2023-02-02T01:54:29;6.50;89.00
48551;DHT22;34397;51.176;6.738;2023-02-02T01:57:08;6.50;89.20
48551;DHT22;34397;51.176;6.738;2023-02-02T01:59:46;6.50;88.80
48551;DHT22;34397;51.176;6.738;2023-02-02T02:02:18;6.50;88.80
48551;DHT22;34397;51.176;6.738;2023-02-02T02:04:51;6.40;88.90
48551;DHT22;34397;51.176;6.738;2023-02-02T02:07:24;6.40;88.90
48551;DHT22;34397;51.176;6.738;2023-02-02T02:09:56;6.40;88.90
48551;DHT22;34397;51.176;6.738;2023-02-02T02:12:28;6.40;88.80
48551;DHT22;34397;51.176;6.738;2023-02-02T02:15:00;6.40;88.80
48551;DHT22;34397;51.176;6.738;2023-02-02T02:17:59;6.50;88.90
48551;DHT22;34397;51.176;6.738;2023-02-02T02:21:04;6.50;88.80
48551;DHT22;34397;51.176;6.738;2023-02-02T02:24:37;6.50;88.90
48551;DHT22;34397;51.176;6.738;2023-02-02T02:34:38;6.50;89.00
48551;DHT22;34397;51.176;6.738;2023-02-02T02:37:20;6.50;89.00
48551;DHT22;34397;51.176;6.738;2023-02-02T02:40:02;6.50;88.80
48551;DHT22;34397;51.176;6.738;2023-02-02T02:42:40;6.50;88.80
48551;DHT22;34397;51.176;6.738;2023-02-02T02:45:16;6.50;88.90
48551;DHT22;34397;51.176;6.738;2023-02-02T02:47:50;6.50;88.80
48551;DHT22;34397;51.176;6.738;2023-02-02T02:50:23;6.50;89.00
48551;DHT22;34397;51.176;6.738;2023-02-02T02:52:59;6.50;89.00
48551;DHT22;34397;51.176;6.738;2023-02-02T02:55:41;6.50;89.00
48551;DHT22;34397;51.176;6.738;2023-02-02T02:58:17;6.50;89.10
48551;DHT22;34397;51.176;6.738;2023-02-02T03:01:00;6.50;88.90
48551;DHT22;34397;51.176;6.738;2023-02-02T03:03:52;6.50;88.80
48551;DHT22;34397;51.176;6.738;2023-02-02T03:06:37;6.40;88.90
48551;DHT22;34397;51.176;6.738;2023-02-02T03:09:14;6.40;88.90
48551;DHT22;34397;51.176;6.738;2023-02-02T03:11:50;6.40;88.90
48551;DHT22;34397;51.176;6.738;2023-02-02T03:14:22;6.40;89.10
48551;DHT22;34397;51.176;6.738;2023-02-02T03:16:53;6.40;89.10
48551;DHT22;34397;51.176;6.738;2023-02-02T03:19:27;6.40;88.90
48551;DHT22;34397;51.176;6.738;2023-02-02T03:21:58;6.40;89.30
48551;DHT22;34397;51.176;6.738;2023-02-02T03:24:30;6.40;88.90
48551;DHT22;34397;51.176;6.738;2023-02-02T03:27:02;6.40;89.20
48551;DHT22;34397;51.176;6.738;2023-02-02T03:29:34;6.40;89.40
48551;DHT22;34397;51.176;6.738;2023-02-02T03:32:06;6.40;89.40
48551;DHT22;34397;51.176;6.738;2023-02-02T03:34:39;6.40;89.20
48551;DHT22;34397;51.176;6.738;2023-02-02T03:37:11;6.40;89.50
48551;DHT22;34397;51.176;6.738;2023-02-02T03:39:42;6.40;89.40
48551;DHT22;34397;51.176;6.738;2023-02-02T03:42:14;6.40;89.30
48551;DHT22;34397;51.176;6.738;2023-02-02T03:44:46;6.40;89.40
48551;DHT22;34397;51.176;6.738;2023-02-02T03:47:18;6.40;89.60
48551;DHT22;34397;51.176;6.738;2023-02-02T03:49:51;6.40;90.00
48551;DHT22;34397;51.176;6.738;2023-02-02T03:52:23;6.40;89.60
48551;DHT22;34397;51.176;6.738;2023-02-02T03:54:55;6.40;89.80
48551;DHT22;34397;51.176;6.738;2023-02-02T03:57:27;6.40;89.90
48551;DHT22;34397;51.176;6.738;2023-02-02T03:59:59;6.40;90.00
48551;DHT22;34397;51.176;6.738;2023-02-02T04:02:31;6.40;90.00
48551;DHT22;34397;51.176;6.738;2023-02-02T04:05:04;6.40;89.70
48551;DHT22;34397;51.176;6.738;2023-02-02T04:07:36;6.40;89.90
48551;DHT22;34397;51.176;6.738;2023-02-02T04:10:09;6.40;89.90
48551;DHT22;34397;51.176;6.738;2023-02-02T04:12:41;6.40;89.80
48551;DHT22;34397;51.176;6.738;2023-02-02T04:15:13;6.40;89.60
48551;DHT22;34397;51.176;6.738;2023-02-02T04:17:45;6.40;89.40
48551;DHT22;34397;51.176;6.738;2023-02-02T04:20:18;6.40;89.50
48551;DHT22;34397;51.176;6.738;2023-02-02T04:22:50;6.40;89.30
48551;DHT22;34397;51.176;6.738;2023-02-02T04:25:22;6.40;89.10
48551;DHT22;34397;51.176;6.738;2023-02-02T04:27:54;6.40;88.90
48551;DHT22;34397;51.176;6.738;2023-02-02T04:30:26;6.40;88.60
48551;DHT22;34397;51.176;6.738;2023-02-02T04:32:58;6.40;88.40
48551;DHT22;34397;51.176;6.738;2023-02-02T04:35:31;6.40;88.70
48551;DHT22;34397;51.176;6.738;2023-02-02T04:38:03;6.40;89.10
48551;DHT22;34397;51.176;6.738;2023-02-02T04:40:37;6.40;89.40
48551;DHT22;34397;51.176;6.738;2023-02-02T04:43:10;6.40;89.40
48551;DHT22;34397;51.176;6.738;2023-02-02T04:45:42;6.40;89.30
48551;DHT22;34397;51.176;6.738;2023-02-02T04:48:14;6.50;89.50
48551;DHT22;34397;51.176;6.738;2023-02-02T04:50:47;6.50;89.70
48551;DHT22;34397;51.176;6.738;2023-02-02T04:53:19;6.50;89.80
48551;DHT22;34397;51.176;6.738;2023-02-02T04:55:51;6.50;90.00
48551;DHT22;34397;51.176;6.738;2023-02-02T04:58:23;6.40;89.70
48551;DHT22;34397;51.176;6.738;2023-02-02T05:00:55;6.40;89.90
48551;DHT22;34397;51.176;6.738;2023-02-02T05:03:26;6.40;89.80
48551;DHT22;34397;51.176;6.738;2023-02-02T05:06:04;6.50;89.70
48551;DHT22;34397;51.176;6.738;2023-02-02T05:08:37;6.50;90.00
48551;DHT22;34397;51.176;6.738;2023-02-02T05:11:09;6.50;90.30
48551;DHT22;34397;51.176;6.738;2023-02-02T05:13:45;6.50;90.10
48551;DHT22;34397;51.176;6.738;2023-02-02T05:16:17;6.50;90.10
48551;DHT22;34397;51.176;6.738;2023-02-02T05:18:51;6.40;90.20
48551;DHT22;34397;51.176;6.738;2023-02-02T05:21:25;6.40;90.30
48551;DHT22;34397;51.176;6.738;2023-02-02T05:23:57;6.40;90.50
48551;DHT22;34397;51.176;6.738;2023-02-02T05:26:30;6.40;90.60
48551;DHT22;34397;51.176;6.738;2023-02-02T05:29:02;6.30;90.50
48551;DHT22;34397;51.176;6.738;2023-02-02T05:31:36;6.30;90.60
48551;DHT22;34397;51.176;6.738;2023-02-02T05:34:07;6.30;90.60
48551;DHT22;34397;51.176;6.738;2023-02-02T05:36:42;6.30;90.60
48551;DHT22;34397;51.176;6.738;2023-02-02T05:39:14;6.30;90.70
48551;DHT22;34397;51.176;6.738;2023-02-02T05:41:46;6.30;90.60
48551;DHT22;34397;51.176;6.738;2023-02-02T05:44:18;6.30;90.60
48551;DHT22;34397;51.176;6.738;2023-02-02T05:46:49;6.20;90.50
48551;DHT22;34397;51.176;6.738;2023-02-02T05:49:21;6.20;90.50
48551;DHT22;34397;51.176;6.738;2023-02-02T05:51:56;6.30;90.50
48551;DHT22;34397;51.176;6.738;2023-02-02T05:54:28;6.30;90.60
48551;DHT22;34397;51.176;6.738;2023-02-02T05:57:00;6.30;90.60
48551;DHT22;34397;51.176;6.738;2023-02-02T05:59:32;6.30;90.70
48551;DHT22;34397;51.176;6.738;2023-02-02T06:02:04;6.30;90.80
48551;DHT22;34397;51.176;6.738;2023-02-02T06:04:36;6.30;90.80
48551;DHT22;34397;51.176;6.738;2023-02-02T06:07:09;6.30;90.60
48551;DHT22;34397;51.176;6.738;2023-02-02T06:09:41;6.30;90.60
48551;DHT22;34397;51.176;6.738;2023-02-02T06:12:13;6.30;90.50
48551;DHT22;34397;51.176;6.738;2023-02-02T06:14:45;6.20;90.50
48551;DHT22;34397;51.176;6.738;2023-02-02T06:17:17;6.30;90.70
48551;DHT22;34397;51.176;6.738;2023-02-02T06:19:49;6.30;90.80
48551;DHT22;34397;51.176;6.738;2023-02-02T06:22:22;6.20;90.80
48551;DHT22;34397;51.176;6.738;2023-02-02T06:24:54;6.20;91.00
48551;DHT22;34397;51.176;6.738;2023-02-02T06:27:25;6.20;91.20
48551;DHT22;34397;51.176;6.738;2023-02-02T06:29:57;6.20;91.30
48551;DHT22;34397;51.176;6.738;2023-02-02T06:32:29;6.20;91.40
48551;DHT22;34397;51.176;6.738;2023-02-02T06:35:01;6.20;91.40
48551;DHT22;34397;51.176;6.738;2023-02-02T06:37:34;6.20;91.40
48551;DHT22;34397;51.176;6.738;2023-02-02T06:40:09;6.20;91.40
48551;DHT22;34397;51.176;6.738;2023-02-02T06:42:43;6.20;91.40
48551;DHT22;34397;51.176;6.738;2023-02-02T06:45:14;6.20;91.40
48551;DHT22;34397;51.176;6.738;2023-02-02T06:47:46;6.30;91.40
48551;DHT22;34397;51.176;6.738;2023-02-02T06:50:18;6.20;91.50
48551;DHT22;34397;51.176;6.738;2023-02-02T06:52:52;6.20;91.50
48551;DHT22;34397;51.176;6.738;2023-02-02T06:55:24;6.20;91.60
48551;DHT22;34397;51.176;6.738;2023-02-02T06:57:56;6.20;91.50
48551;DHT22;34397;51.176;6.738;2023-02-02T07:00:29;6.20;91.50
48551;DHT22;34397;51.176;6.738;2023-02-02T07:03:01;6.20;91.50
48551;DHT22;34397;51.176;6.738;2023-02-02T07:05:32;6.20;91.60
48551;DHT22;34397;51.176;6.738;2023-02-02T07:08:06;6.10;91.60
48551;DHT22;34397;51.176;6.738;2023-02-02T07:10:38;6.10;92.00
48551;DHT22;34397;51.176;6.738;2023-02-02T07:13:10;6.20;91.70
48551;DHT22;34397;51.176;6.738;2023-02-02T07:15:42;6.10;91.70
48551;DHT22;34397;51.176;6.738;2023-02-02T07:18:13;6.10;91.70
48551;DHT22;34397;51.176;6.738;2023-02-02T07:20:45;6.20;91.70
48551;DHT22;34397;51.176;6.738;2023-02-02T07:23:18;6.20;91.70
48551;DHT22;34397;51.176;6.738;2023-02-02T07:25:59;6.20;91.60
48551;DHT22;34397;51.176;6.738;2023-02-02T07:28:32;6.20;91.90
48551;DHT22;34397;51.176;6.738;2023-02-02T07:31:12;6.20;91.90
48551;DHT22;34397;51.176;6.738;2023-02-02T07:33:46;6.20;91.80
48551;DHT22;34397;51.176;6.738;2023-02-02T07:36:20;6.20;91.80
48551;DHT22;34397;51.176;6.738;2023-02-02T07:38:55;6.20;92.00
48551;DHT22;34397;51.176;6.738;2023-02-02T07:41:27;6.20;92.00
48551;DHT22;34397;51.176;6.738;2023-02-02T07:43:58;6.20;92.00
48551;DHT22;34397;51.176;6.738;2023-02-02T07:46:31;6.10;92.10
48551;DHT22;34397;51.176;6.738;2023-02-02T07:49:03;6.10;92.10
48551;DHT22;34397;51.176;6.738;2023-02-02T07:51:35;6.10;92.10
48551;DHT22;34397;51.176;6.738;2023-02-02T07:54:09;6.10;92.00
48551;DHT22;34397;51.176;6.738;2023-02-02T07:56:40;6.20;92.20
48551;DHT22;34397;51.176;6.738;2023-02-02T07:59:12;6.20;92.10
48551;DHT22;34397;51.176;6.738;2023-02-02T08:01:44;6.10;92.00
48551;DHT22;34397;51.176;6.738;2023-02-02T08:04:16;6.10;92.10
48551;DHT22;34397;51.176;6.738;2023-02-02T08:06:48;6.20;92.10
48551;DHT22;34397;51.176;6.738;2023-02-02T08:09:22;6.20;92.20
48551;DHT22;34397;51.176;6.738;2023-02-02T08:11:53;6.20;92.20
48551;DHT22;34397;51.176;6.738;2023-02-02T08:14:31;6.20;92.20
48551;DHT22;34397;51.176;6.738;2023-02-02T08:17:03;6.10;92.30
48551;DHT22;34397;51.176;6.738;2023-02-02T08:19:34;6.20;91.40
48551;DHT22;34397;51.176;6.738;2023-02-02T08:22:06;6.40;90.90
48551;DHT22;34397;51.176;6.738;2023-02-02T08:24:39;6.40;90.70
48551;DHT22;34397;51.176;6.738;2023-02-02T08:27:15;6.50;90.70
48551;DHT22;34397;51.176;6.738;2023-02-02T08:29:47;6.50;90.40
48551;DHT22;34397;51.176;6.738;2023-02-02T08:32:19;6.60;91.10
48551;DHT22;34397;51.176;6.738;2023-02-02T08:34:50;6.60;90.90
48551;DHT22;34397;51.176;6.738;2023-02-02T08:37:23;6.60;90.70
48551;DHT22;34397;51.176;6.738;2023-02-02T08:39:56;6.50;91.20
48551;DHT22;34397;51.176;6.738;2023-02-02T08:42:28;6.50;91.60
48551;DHT22;34397;51.176;6.738;2023-02-02T08:44:59;6.50;91.60
48551;DHT22;34397;51.176;6.738;2023-02-02T08:47:31;6.50;91.70
48551;DHT22;34397;51.176;6.738;2023-02-02T08:50:04;6.50;91.70
48551;DHT22;34397;51.176;6.738;2023-02-02T08:52:36;6.40;91.60
48551;DHT22;34397;51.176;6.738;2023-02-02T08:55:09;6.40;91.70
48551;DHT22;34397;51.176;6.738;2023-02-02T08:57:41;6.40;91.90
48551;DHT22;34397;51.176;6.738;2023-02-02T09:00:14;6.40;91.80
48551;DHT22;34397;51.176;6.738;2023-02-02T09:02:49;6.40;92.00
48551;DHT22;34397;51.176;6.738;2023-02-02T09:05:21;6.40;92.10
48551;DHT22;34397;51.176;6.738;2023-02-02T09:07:53;6.40;92.10
48551;DHT22;34397;51.176;6.738;2023-02-02T09:10:26;6.40;92.10
48551;DHT22;34397;51.176;6.738;2023-02-02T09:13:01;6.40;92.10
48551;DHT22;34397;51.176;6.738;2023-02-02T09:15:33;6.40;92.40
48551;DHT22;34397;51.176;6.738;2023-02-02T09:18:05;6.40;92.50
48551;DHT22;34397;51.176;6.738;2023-02-02T09:20:36;6.40;92.60
48551;DHT22;34397;51.176;6.738;2023-02-02T09:23:08;6.40;92.90
48551;DHT22;34397;51.176;6.738;2023-02-02T09:25:41;6.40;92.70
48551;DHT22;34397;51.176;6.738;2023-02-02T09:28:13;6.40;92.90
48551;DHT22;34397;51.176;6.738;2023-02-02T09:30:45;6.40;93.00
48551;DHT22;34397;51.176;6.738;2023-02-02T09:33:17;6.40;93.00
48551;DHT22;34397;51.176;6.738;2023-02-02T09:35:49;6.40;93.20
48551;DHT22;34397;51.176;6.738;2023-02-02T09:38:20;6.40;92.80
48551;DHT22;34397;51.176;6.738;2023-02-02T09:40:54;6.40;93.00
48551;DHT22;34397;51.176;6.738;2023-02-02T09:43:35;6.40;93.10
48551;DHT22;34397;51.176;6.738;2023-02-02T09:46:20;6.40;93.30
48551;DHT22;34397;51.176;6.738;2023-02-02T09:48:59;6.20;93.70
48551;DHT22;34397;51.176;6.738;2023-02-02T09:51:38;6.20;93.70
48551;DHT22;34397;51.176;6.738;2023-02-02T09:54:16;6.20;93.60
48551;DHT22;34397;51.176;6.738;2023-02-02T09:56:53;6.20;93.50
48551;DHT22;34397;51.176;6.738;2023-02-02T09:59:32;6.20;93.50
48551;DHT22;34397;51.176;6.738;2023-02-02T10:02:14;6.20;93.30
48551;DHT22;34397;51.176;6.738;2023-02-02T10:04:50;6.30;93.40
48551;DHT22;34397;51.176;6.738;2023-02-02T10:07:29;6.30;93.40
48551;DHT22;34397;51.176;6.738;2023-02-02T10:10:09;6.40;93.30
48551;DHT22;34397;51.176;6.738;2023-02-02T10:12:50;6.40;93.00
48551;DHT22;34397;51.176;6.738;2023-02-02T10:15:32;6.40;92.90
48551;DHT22;34397;51.176;6.738;2023-02-02T10:18:11;6.40;92.80
48551;DHT22;34397;51.176;6.738;2023-02-02T10:20:53;6.40;92.60
48551;DHT22;34397;51.176;6.738;2023-02-02T10:23:29;6.50;92.70
48551;DHT22;34397;51.176;6.738;2023-02-02T10:26:11;6.50;92.50
48551;DHT22;34397;51.176;6.738;2023-02-02T10:29:02;6.50;92.20
48551;DHT22;34397;51.176;6.738;2023-02-02T10:31:42;6.60;92.20
48551;DHT22;34397;51.176;6.738;2023-02-02T10:34:21;6.60;92.00
48551;DHT22;34397;51.176;6.738;2023-02-02T10:37:06;6.70;91.80
48551;DHT22;34397;51.176;6.738;2023-02-02T10:39:54;6.70;91.70
48551;DHT22;34397;51.176;6.738;2023-02-02T10:42:42;6.70;91.40
48551;DHT22;34397;51.176;6.738;2023-02-02T10:45:44;6.70;91.40
48551;DHT22;34397;51.176;6.738;2023-02-02T10:48:20;6.80;91.10
48551;DHT22;34397;51.176;6.738;2023-02-02T10:50:55;6.80;91.10
48551;DHT22;34397;51.176;6.738;2023-02-02T10:53:29;6.80;90.90
48551;DHT22;34397;51.176;6.738;2023-02-02T10:56:04;6.80;90.80
48551;DHT22;34397;51.176;6.738;2023-02-02T10:58:42;6.70;91.00
48551;DHT22;34397;51.176;6.738;2023-02-02T11:01:16;6.80;91.00
48551;DHT22;34397;51.176;6.738;2023-02-02T11:03:52;6.80;90.90
48551;DHT22;34397;51.176;6.738;2023-02-02T11:06:55;6.80;90.80
48551;DHT22;34397;51.176;6.738;2023-02-02T11:09:30;6.80;90.80
48551;DHT22;34397;51.176;6.738;2023-02-02T11:12:05;6.80;90.70
48551;DHT22;34397;51.176;6.738;2023-02-02T11:14:46;6.90;90.60
48551;DHT22;34397;51.176;6.738;2023-02-02T11:17:24;6.90;90.40
48551;DHT22;34397;51.176;6.738;2023-02-02T11:19:56;6.90;90.30
48551;DHT22;34397;51.176;6.738;2023-02-02T11:22:32;7.00;90.40
48551;DHT22;34397;51.176;6.738;2023-02-02T11:25:06;7.00;90.50
48551;DHT22;34397;51.176;6.738;2023-02-02T11:27:48;7.00;90.30
48551;DHT22;34397;51.176;6.738;2023-02-02T11:30:27;7.00;90.40
48551;DHT22;34397;51.176;6.738;2023-02-02T11:33:19;7.00;90.10
48551;DHT22;34397;51.176;6.738;2023-02-02T11:35:59;7.00;90.40
48551;DHT22;34397;51.176;6.738;2023-02-02T11:38:32;7.00;90.20
48551;DHT22;34397;51.176;6.738;2023-02-02T11:41:05;7.00;90.20
48551;DHT22;34397;51.176;6.738;2023-02-02T11:43:47;7.10;90.00
48551;DHT22;34397;51.176;6.738;2023-02-02T11:46:23;7.10;90.20
48551;DHT22;34397;51.176;6.738;2023-02-02T11:49:01;7.10;89.50
48551;DHT22;34397;51.176;6.738;2023-02-02T11:51:34;7.10;89.50
48551;DHT22;34397;51.176;6.738;2023-02-02T11:54:15;7.10;89.70
48551;DHT22;34397;51.176;6.738;2023-02-02T11:56:58;7.20;89.70
48551;DHT22;34397;51.176;6.738;2023-02-02T11:59:36;7.20;89.50
48551;DHT22;34397;51.176;6.738;2023-02-02T12:02:24;7.30;89.00
48551;DHT22;34397;51.176;6.738;2023-02-02T12:08:07;7.30;88.60
48551;DHT22;34397;51.176;6.738;2023-02-02T12:10:43;7.40;89.10
48551;DHT22;34397;51.176;6.738;2023-02-02T12:13:27;7.40;88.40
48551;DHT22;34397;51.176;6.738;2023-02-02T12:16:23;7.40;88.30
48551;DHT22;34397;51.176;6.738;2023-02-02T12:19:13;7.40;87.10
48551;DHT22;34397;51.176;6.738;2023-02-02T12:22:12;7.40;87.10
48551;DHT22;34397;51.176;6.738;2023-02-02T12:24:55;7.40;87.40
48551;DHT22;34397;51.176;6.738;2023-02-02T12:27:35;7.50;86.80
48551;DHT22;34397;51.176;6.738;2023-02-02T12:30:22;7.50;86.10
48551;DHT22;34397;51.176;6.738;2023-02-02T12:33:12;7.50;85.70
48551;DHT22;34397;51.176;6.738;2023-02-02T12:39:14;7.60;85.30
48551;DHT22;34397;51.176;6.738;2023-02-02T12:42:16;7.60;85.40
48551;DHT22;34397;51.176;6.738;2023-02-02T12:45:19;7.60;85.60
48551;DHT22;34397;51.176;6.738;2023-02-02T12:48:17;7.60;85.30
48551;DHT22;34397;51.176;6.738;2023-02-02T12:51:02;7.70;85.10
48551;DHT22;34397;51.176;6.738;2023-02-02T12:53:55;7.70;84.50
48551;DHT22;34397;51.176;6.738;2023-02-02T12:56:41;7.70;84.50
48551;DHT22;34397;51.176;6.738;2023-02-02T12:59:22;7.60;85.20
48551;DHT22;34397;51.176;6.738;2023-02-02T13:02:04;7.50;85.00
48551;DHT22;34397;51.176;6.738;2023-02-02T13:04:53;7.40;85.40
48551;DHT22;34397;51.176;6.738;2023-02-02T13:07:39;7.30;86.00
48551;DHT22;34397;51.176;6.738;2023-02-02T13:10:17;7.30;86.20
48551;DHT22;34397;51.176;6.738;2023-02-02T13:12:56;7.40;86.10
48551;DHT22;34397;51.176;6.738;2023-02-02T13:15:34;7.60;85.60
48551;DHT22;34397;51.176;6.738;2023-02-02T13:18:12;7.70;84.80
48551;DHT22;34397;51.176;6.738;2023-02-02T13:20:48;7.70;84.60
48551;DHT22;34397;51.176;6.738;2023-02-02T13:23:26;7.70;84.20
48551;DHT22;34397;51.176;6.738;2023-02-02T13:26:03;7.80;84.70
48551;DHT22;34397;51.176;6.738;2023-02-02T13:28:42;7.80;85.30
48551;DHT22;34397;51.176;6.738;2023-02-02T13:31:19;7.80;85.60
48551;DHT22;34397;51.176;6.738;2023-02-02T13:34:01;7.80;85.10
48551;DHT22;34397;51.176;6.738;2023-02-02T13:36:39;7.80;85.10
48551;DHT22;34397;51.176;6.738;2023-02-02T13:39:16;7.80;85.40
48551;DHT22;34397;51.176;6.738;2023-02-02T13:41:51;7.80;85.10
48551;DHT22;34397;51.176;6.738;2023-02-02T13:44:29;7.80;85.50
48551;DHT22;34397;51.176;6.738;2023-02-02T13:47:07;7.80;85.00
48551;DHT22;34397;51.176;6.738;2023-02-02T13:49:44;7.80;84.80
48551;DHT22;34397;51.176;6.738;2023-02-02T13:52:37;7.70;84.50
48551;DHT22;34397;51.176;6.738;2023-02-02T13:55:30;7.70;85.20
48551;DHT22;34397;51.176;6.738;2023-02-02T13:58:28;7.70;86.00
48551;DHT22;34397;51.176;6.738;2023-02-02T14:01:10;7.60;86.20
48551;DHT22;34397;51.176;6.738;2023-02-02T14:03:49;7.60;87.20
48551;DHT22;34397;51.176;6.738;2023-02-02T14:06:24;7.60;87.50
48551;DHT22;34397;51.176;6.738;2023-02-02T14:08:59;7.60;87.10
48551;DHT22;34397;51.176;6.738;2023-02-02T14:11:34;7.60;87.30
48551;DHT22;34397;51.176;6.738;2023-02-02T14:14:12;7.60;87.60
48551;DHT22;34397;51.176;6.738;2023-02-02T14:17:47;7.60;87.30
48551;DHT22;34397;51.176;6.738;2023-02-02T14:20:40;7.60;86.50
48551;DHT22;34397;51.176;6.738;2023-02-02T14:23:48;7.60;86.00
48551;DHT22;34397;51.176;6.738;2023-02-02T14:26:42;7.60;85.80
48551;DHT22;34397;51.176;6.738;2023-02-02T14:29:33;7.60;86.00
48551;DHT22;34397;51.176;6.738;2023-02-02T14:32:30;7.60;85.10
48551;DHT22;34397;51.176;6.738;2023-02-02T14:38:35;7.60;84.90
48551;DHT22;34397;51.176;6.738;2023-02-02T14:41:17;7.70;84.70
48551;DHT22;34397;51.176;6.738;2023-02-02T14:44:10;7.70;84.30
48551;DHT22;34397;51.176;6.738;2023-02-02T14:46:42;7.70;84.40
48551;DHT22;34397;51.176;6.738;2023-02-02T14:49:21;7.80;84.20
48551;DHT22;34397;51.176;6.738;2023-02-02T14:51:59;7.80;83.60
48551;DHT22;34397;51.176;6.738;2023-02-02T14:54:35;7.80;83.30
48551;DHT22;34397;51.176;6.738;2023-02-02T14:57:24;7.90;83.30
48551;DHT22;34397;51.176;6.738;2023-02-02T14:59:57;7.80;82.90
48551;DHT22;34397;51.176;6.738;2023-02-02T15:02:30;7.90;83.10
48551;DHT22;34397;51.176;6.738;2023-02-02T15:05:43;7.90;83.20
48551;DHT22;34397;51.176;6.738;2023-02-02T15:08:23;7.90;82.90
48551;DHT22;34397;51.176;6.738;2023-02-02T15:11:07;7.90;83.00
48551;DHT22;34397;51.176;6.738;2023-02-02T15:14:13;7.90;83.30
48551;DHT22;34397;51.176;6.738;2023-02-02T15:16:46;7.90;83.20
48551;DHT22;34397;51.176;6.738;2023-02-02T15:19:23;7.90;83.40
48551;DHT22;34397;51.176;6.738;2023-02-02T15:22:09;7.90;83.50
48551;DHT22;34397;51.176;6.738;2023-02-02T15:24:48;7.90;83.50
48551;DHT22;34397;51.176;6.738;2023-02-02T15:27:21;7.90;83.30
48551;DHT22;34397;51.176;6.738;2023-02-02T15:29:56;7.90;83.60
48551;DHT22;34397;51.176;6.738;2023-02-02T15:32:32;7.90;83.60
48551;DHT22;34397;51.176;6.738;2023-02-02T15:35:10;7.90;84.00
48551;DHT22;34397;51.176;6.738;2023-02-02T15:37:52;7.90;83.90
48551;DHT22;34397;51.176;6.738;2023-02-02T15:40:29;7.90;84.10
48551;DHT22;34397;51.176;6.738;2023-02-02T15:43:04;7.90;84.20
48551;DHT22;34397;51.176;6.738;2023-02-02T15:45:44;7.80;84.20
48551;DHT22;34397;51.176;6.738;2023-02-02T15:48:23;7.90;84.30
48551;DHT22;34397;51.176;6.738;2023-02-02T15:50:58;7.80;84.20
48551;DHT22;34397;51.176;6.738;2023-02-02T15:53:44;7.70;84.80
48551;DHT22;34397;51.176;6.738;2023-02-02T15:56:24;7.70;85.20
48551;DHT22;34397;51.176;6.738;2023-02-02T15:58:59;7.70;84.90
48551;DHT22;34397;51.176;6.738;2023-02-02T16:01:32;7.80;85.30
48551;DHT22;34397;51.176;6.738;2023-02-02T16:04:17;7.80;85.10
48551;DHT22;34397;51.176;6.738;2023-02-02T16:06:50;7.80;85.20
48551;DHT22;34397;51.176;6.738;2023-02-02T16:09:26;7.80;85.90
48551;DHT22;34397;51.176;6.738;2023-02-02T16:12:00;7.80;86.40
48551;DHT22;34397;51.176;6.738;2023-02-02T16:14:37;7.80;87.20
48551;DHT22;34397;51.176;6.738;2023-02-02T16:17:11;7.80;87.80
48551;DHT22;34397;51.176;6.738;2023-02-02T16:19:44;7.80;88.10
48551;DHT22;34397;51.176;6.738;2023-02-02T16:22:17;7.80;88.20
48551;DHT22;34397;51.176;6.738;2023-02-02T16:24:57;7.70;88.90
48551;DHT22;34397;51.176;6.738;2023-02-02T16:27:30;7.70;89.40
48551;DHT22;34397;51.176;6.738;2023-02-02T16:30:05;7.60;90.10
48551;DHT22;34397;51.176;6.738;2023-02-02T16:32:39;7.60;90.40
48551;DHT22;34397;51.176;6.738;2023-02-02T16:35:30;7.50;90.60
48551;DHT22;34397;51.176;6.738;2023-02-02T16:38:14;7.50;91.10
48551;DHT22;34397;51.176;6.738;2023-02-02T16:41:06;7.40;91.20
48551;DHT22;34397;51.176;6.738;2023-02-02T16:43:40;7.40;91.40
48551;DHT22;34397;51.176;6.738;2023-02-02T16:46:14;7.40;91.60
48551;DHT22;34397;51.176;6.738;2023-02-02T16:48:55;7.30;91.70
48551;DHT22;34397;51.176;6.738;2023-02-02T16:51:28;7.30;92.00
48551;DHT22;34397;51.176;6.738;2023-02-02T16:54:12;7.30;91.90
48551;DHT22;34397;51.176;6.738;2023-02-02T16:56:51;7.30;92.30
48551;DHT22;34397;51.176;6.738;2023-02-02T16:59:31;7.30;92.30
48551;DHT22;34397;51.176;6.738;2023-02-02T17:02:19;7.30;92.50